Time;durP1;ratioP1;P1;durP2;ratioP2;P2;SDS_P1;SDS_P2;PMS_P1;PMS_P2;Temp;Humidity;BMP_temperature;BMP_pressure;BME280_temperature;BME280_humidity;BME280_pressure;Samples;Min_cycle;Max_cycle;Signal;HPM_P1;HPM_P2
2022/07/18 00:00:55;;;;;;;;;;;;;;;26.70;59.88;101863.91;5079265;28;19916;-81
2022/07/18 00:03:20;;;;;;;;;;;;;;;26.65;60.08;101855.88;5093356;28;19943;-81
2022/07/18 00:05:46;;;;;;;;;;;;;;;26.68;59.78;101863.03;5074668;28;19987;-82
2022/07/18 00:08:11;;;;;;;;;;;;;;;26.71;59.73;101863.03;5090443;28;19973;-82
2022/07/18 00:10:37;;;;;;;;;;;;;;;26.64;60.03;101870.13;5088528;28;20321;-83
2022/07/18 00:13:02;;;;;;;;;;;;;;;26.73;60.14;101858.56;5078402;28;19916;-82
2022/07/18 00:15:27;;;;;;;;;;;;;;;26.74;59.85;101857.69;5081509;28;20398;-83
2022/07/18 00:17:53;;;;;;;;;;;;;;;26.69;59.88;101854.06;5075604;28;20007;-83
2022/07/18 00:20:18;;;;;;;;;;;;;;;26.75;60.04;101851.44;5089115;28;19920;-82
2022/07/18 00:22:44;;;;;;;;;;;;;;;26.73;59.37;101859.47;5090609;28;19987;-83
2022/07/18 00:25:09;;;;;;;;;;;;;;;26.72;60.07;101864.81;5084947;28;19999;-82
2022/07/18 00:27:35;;;;;;;;;;;;;;;26.74;59.76;101860.38;5079764;28;20078;-82
2022/07/18 00:30:00;;;;;;;;;;;;;;;26.72;59.09;101868.41;5072811;28;19917;-83
2022/07/18 00:32:26;;;;;;;;;;;;;;;26.66;59.88;101872.84;5088505;28;19912;-81
2022/07/18 00:34:51;;;;;;;;;;;;;;;26.71;60.12;101873.75;5057573;28;19925;-82
2022/07/18 00:37:16;;;;;;;;;;;;;;;26.70;59.60;101880.88;5052442;28;19916;-82
2022/07/18 00:39:42;;;;;;;;;;;;;;;26.64;59.82;101883.53;5090003;28;20558;-82
2022/07/18 00:42:07;;;;;;;;;;;;;;;26.64;59.96;101879.97;5072441;28;19912;-82
2022/07/18 00:44:33;;;;;;;;;;;;;;;26.59;60.08;101891.56;5070374;28;19922;-82
2022/07/18 00:46:59;;;;;;;;;;;;;;;26.63;59.92;101894.22;5063455;28;20306;-82
2022/07/18 00:49:25;;;;;;;;;;;;;;;26.59;60.33;101893.34;5069082;28;20465;-82
2022/07/18 00:51:51;;;;;;;;;;;;;;;26.62;60.38;101882.63;5068642;28;20003;-82
2022/07/18 00:54:17;;;;;;;;;;;;;;;26.71;60.43;101881.78;5104934;28;19958;-82
2022/07/18 00:56:42;;;;;;;;;;;;;;;26.70;60.26;101880.88;5067117;28;20291;-82
2022/07/18 00:59:08;;;;;;;;;;;;;;;26.72;59.83;101880.91;5096414;28;19966;-82
2022/07/18 01:01:42;;;;;;;;;;;;;;;26.68;60.06;101888.03;5097523;28;20378;-82
2022/07/18 01:04:11;;;;;;;;;;;;;;;26.73;59.86;101888.03;5063855;28;20381;-82
2022/07/18 01:06:36;;;;;;;;;;;;;;;26.74;59.65;101884.50;5085669;28;20432;-82
2022/07/18 01:09:02;;;;;;;;;;;;;;;26.71;60.34;101890.75;5064773;28;20582;-82
2022/07/18 01:11:27;;;;;;;;;;;;;;;26.74;59.82;101887.16;5086591;28;20000;-82
2022/07/18 01:13:53;;;;;;;;;;;;;;;26.70;59.95;101880.88;5050504;28;19978;-82
2022/07/18 01:16:19;;;;;;;;;;;;;;;26.66;60.18;101884.44;5054974;28;20409;-83
2022/07/18 01:18:45;;;;;;;;;;;;;;;26.72;60.09;101880.91;5065774;28;20007;-83
2022/07/18 01:21:10;;;;;;;;;;;;;;;26.69;59.56;101883.56;5063548;28;20033;-83
2022/07/18 01:23:36;;;;;;;;;;;;;;;26.60;60.08;101877.25;5051716;28;20517;-83
2022/07/18 01:26:01;;;;;;;;;;;;;;;26.72;59.54;101886.25;5053261;28;19916;-83
2022/07/18 01:28:27;;;;;;;;;;;;;;;26.70;60.10;101888.94;5070534;28;20378;-83
2022/07/18 01:30:52;;;;;;;;;;;;;;;26.73;59.86;101890.72;5071610;28;20408;-83
2022/07/18 01:33:17;;;;;;;;;;;;;;;26.64;60.18;101898.72;5071604;28;19912;-83
2022/07/18 01:35:44;;;;;;;;;;;;;;;26.50;60.46;101895.91;5087542;28;20304;-83
2022/07/18 01:38:09;;;;;;;;;;;;;;;26.43;61.08;101903.03;5083857;28;19912;-83
2022/07/18 01:40:34;;;;;;;;;;;;;;;26.48;60.96;101909.31;5075696;28;19943;-83
2022/07/18 01:43:01;;;;;;;;;;;;;;;26.57;60.84;101909.41;5086834;28;19928;-83
2022/07/18 01:45:26;;;;;;;;;;;;;;;26.51;61.08;101909.31;5071975;28;19916;-83
2022/07/18 01:47:52;;;;;;;;;;;;;;;26.30;61.69;101901.16;5072920;28;20693;-83
2022/07/18 01:50:17;;;;;;;;;;;;;;;26.17;61.98;101913.56;5073053;28;19913;-83
2022/07/18 01:52:43;;;;;;;;;;;;;;;26.27;61.69;101917.19;5073984;28;20435;-82
2022/07/18 01:55:08;;;;;;;;;;;;;;;26.32;61.45;101926.16;5072933;28;20440;-82
2022/07/18 01:57:34;;;;;;;;;;;;;;;26.29;61.74;101927.06;5055945;28;19917;-82
2022/07/18 01:59:59;;;;;;;;;;;;;;;26.23;61.12;101923.44;5072887;28;20013;-82
2022/07/18 02:02:24;;;;;;;;;;;;;;;26.12;61.31;101918.88;5073862;28;20320;-82
2022/07/18 02:04:59;;;;;;;;;;;;;;;26.11;61.01;101922.44;5073758;28;19916;-82
2022/07/18 02:07:25;;;;;;;;;;;;;;;26.20;60.72;101922.53;5072687;28;20029;-83
2022/07/18 02:09:51;;;;;;;;;;;;;;;26.15;60.50;101926.03;5055770;28;20389;-83
2022/07/18 02:12:16;;;;;;;;;;;;;;;26.03;60.82;101929.50;5079175;28;19924;-83
2022/07/18 02:14:42;;;;;;;;;;;;;;;25.94;60.76;101929.44;5068062;28;20393;-83
2022/07/18 02:17:07;;;;;;;;;;;;;;;25.86;60.81;101923.97;5080330;28;20435;-83
2022/07/18 02:19:33;;;;;;;;;;;;;;;25.91;60.47;101932.97;5049580;28;19920;-83
2022/07/18 02:21:58;;;;;;;;;;;;;;;25.92;60.60;101928.50;5056104;28;19917;-82
2022/07/18 02:24:24;;;;;;;;;;;;;;;25.97;60.27;101930.34;5076613;28;19965;-82
2022/07/18 02:26:49;;;;;;;;;;;;;;;25.89;60.69;101940.09;5087486;28;20412;-82
2022/07/18 02:29:14;;;;;;;;;;;;;;;25.93;60.59;101931.22;5073439;28;19961;-82
2022/07/18 02:31:40;;;;;;;;;;;;;;;25.95;60.33;101939.22;5079656;28;19960;-82
2022/07/18 02:34:09;;;;;;;;;;;;;;;25.88;60.27;101934.69;5088549;28;20316;-82
2022/07/18 02:36:39;;;;;;;;;;;;;;;25.83;60.42;101933.75;5081211;28;19913;-82
2022/07/18 02:39:04;;;;;;;;;;;;;;;25.80;60.74;101919.47;5087770;28;19916;-82
2022/07/18 02:41:30;;;;;;;;;;;;;;;25.81;60.01;101933.72;5072056;28;20469;-82
2022/07/18 02:43:55;;;;;;;;;;;;;;;25.80;60.35;101931.94;5070768;28;19912;-82
2022/07/18 02:46:21;;;;;;;;;;;;;;;25.77;60.49;101930.13;5083072;28;19916;-82
2022/07/18 02:48:46;;;;;;;;;;;;;;;25.79;60.42;101944.41;5084088;28;19944;-81
2022/07/18 02:51:12;;;;;;;;;;;;;;;25.85;59.89;101937.34;5084073;28;19917;-82
2022/07/18 02:53:37;;;;;;;;;;;;;;;25.74;60.11;101948.84;5076181;28;20018;-82
2022/07/18 02:56:03;;;;;;;;;;;;;;;25.78;60.13;101939.03;5079947;28;20304;-83
2022/07/18 02:58:28;;;;;;;;;;;;;;;25.70;60.23;101944.34;5053140;28;19912;-82
2022/07/18 03:00:54;;;;;;;;;;;;;;;25.77;59.93;101943.50;5088511;28;19927;-82
2022/07/18 03:03:19;;;;;;;;;;;;;;;25.74;60.16;101945.28;5090019;28;20317;-82
2022/07/18 03:05:45;;;;;;;;;;;;;;;25.73;59.75;101947.03;5089573;28;19923;-82
2022/07/18 03:08:10;;;;;;;;;;;;;;;25.70;59.90;101965.75;5088446;28;20606;-82
2022/07/18 03:10:36;;;;;;;;;;;;;;;25.71;59.83;101959.50;5056527;28;20009;-82
2022/07/18 03:13:01;;;;;;;;;;;;;;;25.67;59.55;101955.00;5087458;28;20300;-82
2022/07/18 03:15:27;;;;;;;;;;;;;;;25.71;59.48;101950.56;5086274;28;20416;-81
2022/07/18 03:17:52;;;;;;;;;;;;;;;25.83;59.30;101964.09;5083033;28;19919;-81
2022/07/18 03:20:18;;;;;;;;;;;;;;;25.78;59.35;101960.44;5073274;28;19917;-82
2022/07/18 03:22:43;;;;;;;;;;;;;;;25.89;59.31;101965.97;5080718;28;20324;-81
2022/07/18 03:25:09;;;;;;;;;;;;;;;25.92;59.04;101964.19;5065090;28;20006;-81
2022/07/18 03:27:34;;;;;;;;;;;;;;;25.97;58.83;101970.50;5067112;28;20007;-81
2022/07/18 03:29:59;;;;;;;;;;;;;;;25.95;59.15;101961.56;5069776;28;19916;-82
2022/07/18 03:32:25;;;;;;;;;;;;;;;25.94;59.20;101967.78;5092305;28;20625;-82
2022/07/18 03:34:50;;;;;;;;;;;;;;;25.93;59.13;101962.41;5070221;28;20517;-82
2022/07/18 03:37:16;;;;;;;;;;;;;;;25.87;59.25;101971.25;5084829;28;20291;-82
2022/07/18 03:39:41;;;;;;;;;;;;;;;25.93;59.22;101970.44;5068354;28;20416;-82
2022/07/18 03:42:06;;;;;;;;;;;;;;;25.96;59.01;101967.81;5087593;28;20325;-82
2022/07/18 03:44:32;;;;;;;;;;;;;;;25.95;59.16;101974.03;5061574;28;19939;-82
2022/07/18 03:46:57;;;;;;;;;;;;;;;25.98;59.08;101974.97;5092681;28;20505;-82
2022/07/18 03:49:23;;;;;;;;;;;;;;;26.00;58.96;101978.56;5086409;28;20339;-82
2022/07/18 03:51:48;;;;;;;;;;;;;;;25.99;58.83;101971.44;5077995;28;20285;-82
2022/07/18 03:54:13;;;;;;;;;;;;;;;25.97;58.95;101967.84;5075873;28;20421;-82
2022/07/18 03:56:39;;;;;;;;;;;;;;;25.94;58.79;101975.81;5085228;28;20420;-82
2022/07/18 03:59:04;;;;;;;;;;;;;;;26.03;58.78;101987.50;5093854;28;20343;-82
2022/07/18 04:01:30;;;;;;;;;;;;;;;25.99;58.63;101984.81;5093749;28;20297;-82
2022/07/18 04:03:55;;;;;;;;;;;;;;;26.02;58.89;101989.28;5090082;28;20458;-82
2022/07/18 04:06:21;;;;;;;;;;;;;;;26.00;58.77;101988.38;5078481;28;20308;-81
2022/07/18 04:08:46;;;;;;;;;;;;;;;25.92;58.81;101990.06;5075684;28;20033;-81
2022/07/18 04:11:12;;;;;;;;;;;;;;;25.99;58.75;101992.84;5081797;28;19956;-81
2022/07/18 04:13:37;;;;;;;;;;;;;;;25.96;58.56;101987.44;5064705;28;20385;-82
2022/07/18 04:16:03;;;;;;;;;;;;;;;25.95;58.59;101984.72;5087441;28;19919;-82
2022/07/18 04:18:28;;;;;;;;;;;;;;;25.98;58.49;101992.81;5093430;28;20446;-82
2022/07/18 04:20:53;;;;;;;;;;;;;;;25.91;58.94;101986.50;5068995;28;20002;-80
2022/07/18 04:23:19;;;;;;;;;;;;;;;25.90;58.82;101989.16;5077789;28;20385;-81
2022/07/18 04:25:45;;;;;;;;;;;;;;;25.87;59.14;101992.69;5090765;28;20396;-81
2022/07/18 04:28:11;;;;;;;;;;;;;;;25.88;59.08;101998.91;5077505;28;19923;-82
2022/07/18 04:30:37;;;;;;;;;;;;;;;25.80;59.02;101989.03;5084655;28;19912;-87
2022/07/18 04:33:03;;;;;;;;;;;;;;;25.89;58.95;101996.31;5082933;28;19912;-81
2022/07/18 04:35:29;;;;;;;;;;;;;;;25.82;59.13;101986.34;5067231;28;19920;-81
2022/07/18 04:37:54;;;;;;;;;;;;;;;25.84;59.21;101994.41;5092249;28;20360;-81
2022/07/18 04:40:20;;;;;;;;;;;;;;;25.83;59.00;101993.53;5082136;28;20377;-81
2022/07/18 04:42:45;;;;;;;;;;;;;;;25.84;58.90;101995.31;5059921;28;20479;-81
2022/07/18 04:45:11;;;;;;;;;;;;;;;25.92;59.11;101998.09;5086000;28;19953;-81
2022/07/18 04:47:36;;;;;;;;;;;;;;;25.90;58.88;102000.75;5074778;28;19916;-81
2022/07/18 04:50:02;;;;;;;;;;;;;;;25.83;59.16;102014.03;5080246;28;19975;-80
2022/07/18 04:52:35;;;;;;;;;;;;;;;25.88;58.95;102015.88;5078374;28;19950;-81
2022/07/18 04:55:00;;;;;;;;;;;;;;;25.82;58.94;102020.25;5068341;28;19958;-80
2022/07/18 04:57:25;;;;;;;;;;;;;;;25.90;58.73;102026.63;5087814;28;19951;-81
2022/07/18 04:59:51;;;;;;;;;;;;;;;25.92;58.90;102031.13;5086848;28;20321;-81
2022/07/18 05:02:16;;;;;;;;;;;;;;;25.97;59.35;102023.13;5087251;28;20409;-81
2022/07/18 05:04:42;;;;;;;;;;;;;;;25.91;58.51;102023.97;5087842;28;19912;-77
2022/07/18 05:07:07;;;;;;;;;;;;;;;25.89;58.33;102022.19;5087366;28;20270;-81
2022/07/18 05:09:33;;;;;;;;;;;;;;;25.84;58.75;102027.41;5091780;28;19956;-80
2022/07/18 05:11:58;;;;;;;;;;;;;;;25.88;58.84;102025.69;5087592;28;19923;-79
2022/07/18 05:14:23;;;;;;;;;;;;;;;25.93;58.68;102027.56;5079304;28;19965;-80
2022/07/18 05:16:49;;;;;;;;;;;;;;;25.92;58.58;102025.75;5072160;28;19916;-81
2022/07/18 05:19:17;;;;;;;;;;;;;;;25.92;58.30;102032.91;5078868;28;19962;-80
2022/07/18 05:21:43;;;;;;;;;;;;;;;25.90;58.11;102042.69;5075176;28;19916;-81
2022/07/18 05:24:09;;;;;;;;;;;;;;;25.91;58.13;102036.47;5071414;28;19924;-81
2022/07/18 05:26:34;;;;;;;;;;;;;;;25.98;58.19;102046.34;5060303;28;19916;-81
2022/07/18 05:29:00;;;;;;;;;;;;;;;25.93;58.04;102040.03;5076950;28;20017;-81
2022/07/18 05:31:25;;;;;;;;;;;;;;;25.91;58.00;102045.41;5082563;28;19917;-80
2022/07/18 05:33:50;;;;;;;;;;;;;;;25.93;58.00;102048.06;5064463;28;20439;-80
2022/07/18 05:36:16;;;;;;;;;;;;;;;25.94;58.30;102058.78;5079662;28;19923;-81
2022/07/18 05:38:41;;;;;;;;;;;;;;;25.90;57.97;102056.97;5087722;28;19924;-81
2022/07/18 05:41:07;;;;;;;;;;;;;;;25.92;58.14;102055.19;5082300;28;20356;-82
2022/07/18 05:43:32;;;;;;;;;;;;;;;25.94;58.15;102058.78;5068004;28;20587;-82
2022/07/18 05:45:58;;;;;;;;;;;;;;;25.96;58.07;102059.72;5092242;28;20321;-81
2022/07/18 05:48:23;;;;;;;;;;;;;;;25.93;57.63;102064.13;5068897;28;20012;-81
2022/07/18 05:50:48;;;;;;;;;;;;;;;25.98;57.93;102060.63;5079260;28;19986;-81
2022/07/18 05:53:23;;;;;;;;;;;;;;;25.96;58.08;102062.38;5090967;28;20376;-82
2022/07/18 05:55:49;;;;;;;;;;;;;;;25.92;58.05;102065.91;5092306;28;19916;-81
2022/07/18 05:58:14;;;;;;;;;;;;;;;25.95;58.24;102060.59;5081292;28;19916;-81
2022/07/18 06:00:40;;;;;;;;;;;;;;;25.93;57.83;102058.78;5081931;28;20393;-81
2022/07/18 06:03:05;;;;;;;;;;;;;;;25.98;57.89;102054.38;5072460;28;19973;-82
2022/07/18 06:05:31;;;;;;;;;;;;;;;25.95;57.68;102067.72;5074813;28;19927;-81
2022/07/18 06:07:56;;;;;;;;;;;;;;;25.98;57.89;102071.34;5074510;28;19923;-84
2022/07/18 06:10:22;;;;;;;;;;;;;;;25.91;57.53;102060.56;5068604;28;19916;-84
2022/07/18 06:12:49;;;;;;;;;;;;;;;25.94;57.59;102063.25;5100323;28;20002;-84
2022/07/18 06:15:15;;;;;;;;;;;;;;;25.89;57.41;102076.59;5094404;28;20380;-83
2022/07/18 06:17:41;;;;;;;;;;;;;;;25.96;58.07;102069.53;5060212;28;19912;-83
2022/07/18 06:20:07;;;;;;;;;;;;;;;25.95;58.00;102065.97;5080976;28;19921;-83
2022/07/18 06:22:34;;;;;;;;;;;;;;;25.95;57.52;102062.38;5079109;28;19966;-82
2022/07/18 06:24:59;;;;;;;;;;;;;;;25.87;57.34;102061.38;5073733;28;20051;-81
2022/07/18 06:27:25;;;;;;;;;;;;;;;25.89;57.91;102068.56;5048226;28;20374;-84
2022/07/18 06:29:50;;;;;;;;;;;;;;;25.90;57.80;102074.81;5073874;28;19922;-84
2022/07/18 06:32:16;;;;;;;;;;;;;;;25.93;57.76;102072.16;5069820;28;20015;-87
2022/07/18 06:34:41;;;;;;;;;;;;;;;25.91;57.63;102072.16;5089682;27;19928;-84
2022/07/18 06:37:07;;;;;;;;;;;;;;;25.90;57.61;102073.03;5096375;27;19916;-84
2022/07/18 06:39:32;;;;;;;;;;;;;;;25.88;57.86;102069.41;5098849;27;19920;-85
2022/07/18 06:42:00;;;;;;;;;;;;;;;25.94;57.32;102076.66;5066281;28;19919;-81
2022/07/18 06:44:26;;;;;;;;;;;;;;;25.89;57.60;102076.59;5067033;28;20389;-81
2022/07/18 06:46:52;;;;;;;;;;;;;;;25.92;57.57;102068.59;5065466;28;19920;-79
2022/07/18 06:49:18;;;;;;;;;;;;;;;25.93;57.79;102057.03;5065416;28;19931;-80
2022/07/18 06:51:43;;;;;;;;;;;;;;;25.92;57.43;102073.06;5059187;28;20446;-82
2022/07/18 06:54:08;;;;;;;;;;;;;;;25.98;57.31;102073.13;5063634;28;20006;-80
2022/07/18 06:56:37;;;;;;;;;;;;;;;25.95;57.41;102068.63;5092766;27;19916;-80
2022/07/18 06:59:03;;;;;;;;;;;;;;;25.95;57.49;102068.63;5067419;28;19917;-81
2022/07/18 07:01:28;;;;;;;;;;;;;;;25.93;57.42;102067.72;5086242;28;19920;-80
2022/07/18 07:03:54;;;;;;;;;;;;;;;25.93;56.82;102067.72;5069214;28;20381;-81
2022/07/18 07:06:19;;;;;;;;;;;;;;;25.90;57.52;102058.75;5059744;28;19955;-80
2022/07/18 07:08:45;;;;;;;;;;;;;;;25.85;57.17;102071.16;5059170;28;19921;-80
2022/07/18 07:11:10;;;;;;;;;;;;;;;25.89;57.12;102070.34;5056625;28;20025;-81
2022/07/18 07:13:36;;;;;;;;;;;;;;;25.94;57.44;102069.50;5058641;28;19913;-81
2022/07/18 07:16:01;;;;;;;;;;;;;;;25.93;56.52;102062.38;5086186;28;19921;-83
2022/07/18 07:18:26;;;;;;;;;;;;;;;25.91;57.00;102071.28;5061935;28;19916;-83
2022/07/18 07:20:52;;;;;;;;;;;;;;;25.93;57.19;102073.06;5071034;28;19928;-82
2022/07/18 07:23:17;;;;;;;;;;;;;;;25.94;56.59;102063.25;5061090;28;19924;-82
2022/07/18 07:25:43;;;;;;;;;;;;;;;25.92;56.66;102079.28;5054446;28;20367;-82
2022/07/18 07:28:08;;;;;;;;;;;;;;;25.94;56.27;102084.69;5097025;28;19920;-83
2022/07/18 07:30:34;;;;;;;;;;;;;;;25.99;56.14;102085.59;5050509;28;20387;-82
2022/07/18 07:32:59;;;;;;;;;;;;;;;25.99;56.44;102085.59;5071918;28;19912;-83
2022/07/18 07:35:25;;;;;;;;;;;;;;;25.96;56.74;102080.25;5088709;28;19921;-83
2022/07/18 07:37:55;;;;;;;;;;;;;;;25.93;56.92;102085.53;5083305;28;19916;-84
2022/07/18 07:40:21;;;;;;;;;;;;;;;25.92;56.60;102079.28;5052134;28;20010;-83
2022/07/18 07:42:46;;;;;;;;;;;;;;;25.96;56.74;102077.56;5071011;28;19944;-83
2022/07/18 07:45:13;;;;;;;;;;;;;;;25.93;56.24;102078.44;5082380;28;19990;-83
2022/07/18 07:47:38;;;;;;;;;;;;;;;25.95;56.31;102079.34;5111261;27;19920;-83
2022/07/18 07:50:05;;;;;;;;;;;;;;;25.99;56.13;102070.47;5060631;28;20052;-83
2022/07/18 07:52:31;;;;;;;;;;;;;;;25.95;56.02;102074.00;5069205;28;19922;-83
2022/07/18 07:54:56;;;;;;;;;;;;;;;25.97;56.47;102080.25;5061761;28;20003;-83
2022/07/18 07:57:25;;;;;;;;;;;;;;;26.03;56.76;102083.88;5064481;28;19920;-83
2022/07/18 07:59:57;;;;;;;;;;;;;;;25.95;56.13;102075.75;5079290;28;19920;-84
2022/07/18 08:02:26;;;;;;;;;;;;;;;25.95;56.53;102076.66;5052078;28;19916;-84
2022/07/18 08:04:52;;;;;;;;;;;;;;;26.00;56.55;102076.72;5062638;28;19919;-85
2022/07/18 08:07:30;;;;;;;;;;;;;;;25.99;56.42;102072.22;5053543;28;20416;-83
2022/07/18 08:09:56;;;;;;;;;;;;;;;26.00;56.18;102069.56;5043311;28;19952;-84
2022/07/18 08:12:22;;;;;;;;;;;;;;;25.92;56.50;102084.66;5054772;28;19916;-82
2022/07/18 08:14:49;;;;;;;;;;;;;;;25.90;56.00;102082.84;5064529;28;19921;-83
2022/07/18 08:17:15;;;;;;;;;;;;;;;25.96;56.41;102089.16;5064009;28;19922;-84
2022/07/18 08:19:40;;;;;;;;;;;;;;;25.91;56.66;102087.34;5094219;28;19920;-84
2022/07/18 08:22:06;;;;;;;;;;;;;;;25.87;55.75;102090.81;5054986;28;19919;-84
2022/07/18 08:24:31;;;;;;;;;;;;;;;25.95;56.49;102098.09;5059855;28;20389;-84
2022/07/18 08:26:58;;;;;;;;;;;;;;;25.98;56.10;102091.88;5052103;28;19916;-83
2022/07/18 08:29:23;;;;;;;;;;;;;;;25.95;55.97;102087.38;5073298;28;20345;-82
2022/07/18 08:31:49;;;;;;;;;;;;;;;25.96;55.92;102101.66;5074343;28;19924;-87
2022/07/18 08:34:14;;;;;;;;;;;;;;;26.01;56.48;102105.25;5057763;28;20412;-83
2022/07/18 08:36:39;;;;;;;;;;;;;;;25.96;56.05;102107.00;5085140;28;19923;-84
2022/07/18 08:39:33;;;;;;;;;;;;;;;26.05;56.24;102116.91;5055064;28;20727;-84
2022/07/18 08:42:00;;;;;;;;;;;;;;;26.06;56.12;102108.03;5052056;28;20363;-84
2022/07/18 08:44:27;;;;;;;;;;;;;;;26.06;56.52;102116.94;5085366;28;20298;-84
2022/07/18 08:46:53;;;;;;;;;;;;;;;26.04;56.08;102117.81;5053630;28;20402;-81
2022/07/18 08:49:19;;;;;;;;;;;;;;;26.03;55.98;102111.53;5056639;28;20390;-84
2022/07/18 08:51:44;;;;;;;;;;;;;;;26.02;55.88;102114.22;5091425;28;19924;-83
2022/07/18 08:54:10;;;;;;;;;;;;;;;26.07;55.97;102110.69;5050538;28;19936;-82
2022/07/18 08:56:35;;;;;;;;;;;;;;;26.10;56.20;102117.84;5065553;28;20337;-82
2022/07/18 08:59:02;;;;;;;;;;;;;;;26.10;55.62;102113.44;5086775;28;20405;-82
2022/07/18 09:01:28;;;;;;;;;;;;;;;26.12;56.32;102108.06;5069319;28;19913;-82
2022/07/18 09:06:47;;;;;;;;;;;;;;;26.06;56.11;102111.59;5058072;28;19947;-83
2022/07/18 09:09:14;;;;;;;;;;;;;;;26.08;55.95;102111.63;5063746;28;19990;-83
2022/07/18 09:12:09;;;;;;;;;;;;;;;26.07;56.38;102117.84;5059215;28;19973;-83
2022/07/18 09:14:38;;;;;;;;;;;;;;;25.97;55.33;102123.09;5068626;28;19951;-83
2022/07/18 09:17:22;;;;;;;;;;;;;;;26.07;55.59;102113.38;5082856;28;19983;-82
2022/07/18 09:19:56;;;;;;;;;;;;;;;26.14;55.92;102127.72;5051772;28;19917;-83
2022/07/18 09:22:23;;;;;;;;;;;;;;;26.10;56.17;102124.13;5055870;28;19912;-82
2022/07/18 09:25:12;;;;;;;;;;;;;;;26.11;55.71;102125.03;5060969;28;20004;-83
2022/07/18 09:27:40;;;;;;;;;;;;;;;26.05;55.00;102135.66;5068742;28;19916;-83
2022/07/18 09:30:09;;;;;;;;;;;;;;;26.09;55.72;102130.34;5093328;28;20015;-83
2022/07/18 09:32:35;;;;;;;;;;;;;;;26.18;55.25;102135.84;5096031;28;19920;-83
2022/07/18 09:35:05;;;;;;;;;;;;;;;26.13;54.32;102125.94;5064371;28;19920;-83
2022/07/18 09:37:30;;;;;;;;;;;;;;;26.12;55.18;102124.13;5068672;28;20418;-84
2022/07/18 09:40:13;;;;;;;;;;;;;;;26.08;54.88;102128.56;5058275;28;19963;-83
2022/07/18 09:42:39;;;;;;;;;;;;;;;26.14;55.82;102128.66;5089969;28;19917;-83
2022/07/18 09:45:05;;;;;;;;;;;;;;;26.18;55.79;102129.56;5084195;28;19913;-84
2022/07/18 09:47:31;;;;;;;;;;;;;;;26.13;55.50;102128.63;5060576;28;19991;-83
2022/07/18 09:49:56;;;;;;;;;;;;;;;26.15;54.78;102132.22;5057082;28;19913;-85
2022/07/18 09:52:22;;;;;;;;;;;;;;;26.09;55.36;102127.66;5059706;28;19917;-84
2022/07/18 09:54:47;;;;;;;;;;;;;;;26.06;54.05;102127.66;5066148;28;19973;-84
2022/07/18 09:57:26;;;;;;;;;;;;;;;26.14;53.23;102136.69;5072270;28;19913;-84
2022/07/18 09:59:52;;;;;;;;;;;;;;;26.06;52.60;102134.78;5093306;28;19937;-84
2022/07/18 10:02:18;;;;;;;;;;;;;;;26.03;53.92;102140.09;5068821;28;19978;-85
2022/07/18 10:04:47;;;;;;;;;;;;;;;26.06;54.04;102137.47;5041462;28;19973;-84
2022/07/18 10:07:13;;;;;;;;;;;;;;;26.13;54.71;102140.22;5057458;28;19923;-84
2022/07/18 10:09:47;;;;;;;;;;;;;;;26.12;54.16;102127.72;5098784;28;19917;-85
2022/07/18 10:12:15;;;;;;;;;;;;;;;26.14;54.76;102128.66;5101033;28;19921;-85
2022/07/18 10:14:41;;;;;;;;;;;;;;;26.14;53.65;102130.41;5077602;28;19912;-83
2022/07/18 10:17:06;;;;;;;;;;;;;;;26.17;54.51;102131.34;5114292;28;19919;-85
2022/07/18 10:19:34;;;;;;;;;;;;;;;26.13;54.47;102132.19;5064910;28;19924;-84
2022/07/18 10:21:59;;;;;;;;;;;;;;;26.16;54.35;102134.00;5080704;28;20405;-85
2022/07/18 10:24:24;;;;;;;;;;;;;;;26.19;54.24;102126.00;5074234;28;19916;-84
2022/07/18 10:27:09;;;;;;;;;;;;;;;26.18;55.01;102141.19;5081584;28;19917;-84
2022/07/18 10:29:34;;;;;;;;;;;;;;;26.13;54.69;102124.16;5055469;28;20390;-84
2022/07/18 10:32:01;;;;;;;;;;;;;;;26.22;55.01;102122.47;5076427;28;19995;-84
2022/07/18 10:34:28;;;;;;;;;;;;;;;26.23;55.11;102130.53;5100385;28;20309;-86
2022/07/18 10:36:54;;;;;;;;;;;;;;;26.28;54.96;102131.47;5095128;28;19913;-84
2022/07/18 10:39:21;;;;;;;;;;;;;;;26.29;54.78;102135.94;5055700;28;19946;-85
2022/07/18 10:41:46;;;;;;;;;;;;;;;26.25;55.05;102127.88;5089656;28;19913;-85
2022/07/18 10:44:34;;;;;;;;;;;;;;;26.25;54.82;102127.88;5086301;28;19928;-85
2022/07/18 10:47:03;;;;;;;;;;;;;;;26.22;54.98;102127.81;5054017;28;19921;-85
2022/07/18 10:49:50;;;;;;;;;;;;;;;26.25;54.92;102128.75;5068256;28;20037;-84
2022/07/18 10:52:24;;;;;;;;;;;;;;;26.26;54.93;102126.97;5058686;28;19935;-85
2022/07/18 10:55:05;;;;;;;;;;;;;;;26.27;55.64;102127.00;5058403;28;19913;-84
2022/07/18 10:57:37;;;;;;;;;;;;;;;26.24;54.90;102134.09;5058727;28;19917;-83
2022/07/18 11:00:11;;;;;;;;;;;;;;;26.25;55.25;102120.72;5072483;28;20519;-84
2022/07/18 11:02:36;;;;;;;;;;;;;;;26.32;55.09;102135.97;5090494;28;19916;-83
2022/07/18 11:05:02;;;;;;;;;;;;;;;26.29;55.25;102133.28;5053482;28;19916;-83
2022/07/18 11:07:27;;;;;;;;;;;;;;;26.27;55.50;102137.72;5055002;28;19988;-84
2022/07/18 11:09:53;;;;;;;;;;;;;;;26.31;55.25;102128.81;5090959;28;19920;-83
2022/07/18 11:12:18;;;;;;;;;;;;;;;26.28;55.11;102122.53;5091281;28;19966;-84
2022/07/18 11:15:05;;;;;;;;;;;;;;;26.30;54.51;102128.81;5052235;28;19919;-83
2022/07/18 11:18:03;;;;;;;;;;;;;;;26.27;54.53;102128.75;5065654;28;20066;-84
2022/07/18 11:20:41;;;;;;;;;;;;;;;26.29;54.21;102129.66;5060237;28;19977;-84
2022/07/18 11:23:14;;;;;;;;;;;;;;;26.33;55.36;102116.34;5057283;28;20000;-84
2022/07/18 11:25:43;;;;;;;;;;;;;;;26.33;55.02;102111.00;5063837;28;19917;-84
2022/07/18 11:28:09;;;;;;;;;;;;;;;26.29;55.45;102111.84;5059781;28;19920;-84
2022/07/18 11:30:34;;;;;;;;;;;;;;;26.35;55.40;102108.31;5070784;28;19924;-84
2022/07/18 11:33:06;;;;;;;;;;;;;;;26.40;55.44;102119.97;5092795;28;19924;-84
2022/07/18 11:35:32;;;;;;;;;;;;;;;26.31;54.93;102115.44;5047981;28;19928;-84
2022/07/18 11:38:03;;;;;;;;;;;;;;;26.29;54.72;102113.59;5090092;28;19916;-84
2022/07/18 11:40:32;;;;;;;;;;;;;;;26.36;55.51;102108.34;5096365;28;19917;-84
2022/07/18 11:43:03;;;;;;;;;;;;;;;26.36;54.91;102113.69;5067125;28;19924;-83
2022/07/18 11:45:35;;;;;;;;;;;;;;;26.31;54.87;102109.16;5078429;28;19912;-82
2022/07/18 11:48:01;;;;;;;;;;;;;;;26.35;54.02;102114.59;5057773;28;19935;-84
2022/07/18 11:50:33;;;;;;;;;;;;;;;26.40;55.03;102115.53;5064107;28;20551;-83
2022/07/18 11:53:01;;;;;;;;;;;;;;;26.39;54.88;102105.69;5051755;28;19919;-84
2022/07/18 11:55:35;;;;;;;;;;;;;;;26.36;54.56;102102.09;5095600;28;19912;-83
2022/07/18 11:58:27;;;;;;;;;;;;;;;26.36;54.08;102100.28;5084089;28;19985;-84
2022/07/18 12:00:58;;;;;;;;;;;;;;;26.36;54.71;102102.09;5060099;28;19970;-83
2022/07/18 12:03:24;;;;;;;;;;;;;;;26.46;54.65;102100.38;5104207;28;19920;-84
2022/07/18 12:05:50;;;;;;;;;;;;;;;26.44;54.81;102102.13;5091574;28;19913;-82
2022/07/18 12:08:29;;;;;;;;;;;;;;;26.40;54.76;102091.41;5068567;28;19912;-82
2022/07/18 12:11:34;;;;;;;;;;;;;;;26.40;54.79;102096.78;5077127;28;19917;-85
2022/07/18 12:14:08;;;;;;;;;;;;;;;26.39;55.04;102089.63;5058822;28;19974;-86
2022/07/18 12:16:38;;;;;;;;;;;;;;;26.46;54.50;102090.59;5076394;28;19977;-86
2022/07/18 12:19:12;;;;;;;;;;;;;;;26.55;54.84;102087.09;5055901;28;19982;-86
2022/07/18 12:22:04;;;;;;;;;;;;;;;26.47;55.10;102084.31;5067763;28;19920;-87
2022/07/18 12:24:29;;;;;;;;;;;;;;;26.51;54.80;102086.16;5063159;28;20003;-83
2022/07/18 12:27:12;;;;;;;;;;;;;;;26.45;54.40;102080.72;5068757;28;19947;-82
2022/07/18 12:30:02;;;;;;;;;;;;;;;26.49;54.75;102084.34;5064742;28;19921;-83
2022/07/18 12:32:28;;;;;;;;;;;;;;;26.47;54.71;102084.31;5057088;28;19916;-83
2022/07/18 12:34:57;;;;;;;;;;;;;;;26.51;54.99;102083.47;5084639;28;20235;-83
2022/07/18 12:37:27;;;;;;;;;;;;;;;26.46;54.89;102095.94;5094899;28;20538;-84
2022/07/18 12:39:56;;;;;;;;;;;;;;;26.53;54.57;102087.06;5066653;28;20413;-84